sensor_id;sensor_type;location;lat;lon;timestamp;temperature;humidity
21522;DHT22;10922;45.572;10.002;2023-04-23T00:02:12;15.70;99.90
21522;DHT22;10922;45.572;10.002;2023-04-23T00:04:46;15.70;99.90
21522;DHT22;10922;45.572;10.002;2023-04-23T00:07:14;15.70;99.90
21522;DHT22;10922;45.572;10.002;2023-04-23T00:09:42;15.70;99.90
21522;DHT22;10922;45.572;10.002;2023-04-23T00:12:09;15.60;99.90
21522;DHT22;10922;45.572;10.002;2023-04-23T00:14:36;15.60;99.90
21522;DHT22;10922;45.572;10.002;2023-04-23T00:17:02;15.60;99.90
21522;DHT22;10922;45.572;10.002;2023-04-23T00:19:28;15.50;99.90
21522;DHT22;10922;45.572;10.002;2023-04-23T00:21:54;15.50;99.90
21522;DHT22;10922;45.572;10.002;2023-04-23T00:24:20;15.50;99.90
21522;DHT22;10922;45.572;10.002;2023-04-23T00:26:46;15.40;99.90
21522;DHT22;10922;45.572;10.002;2023-04-23T00:29:11;15.40;99.90
21522;DHT22;10922;45.572;10.002;2023-04-23T00:31:37;15.50;99.90
21522;DHT22;10922;45.572;10.002;2023-04-23T00:34:03;15.50;99.90
21522;DHT22;10922;45.572;10.002;2023-04-23T00:36:29;15.50;99.90
21522;DHT22;10922;45.572;10.002;2023-04-23T00:38:54;15.50;99.90
21522;DHT22;10922;45.572;10.002;2023-04-23T00:41:20;15.50;99.90
21522;DHT22;10922;45.572;10.002;2023-04-23T00:43:46;15.50;99.90
21522;DHT22;10922;45.572;10.002;2023-04-23T00:46:13;15.50;99.90
21522;DHT22;10922;45.572;10.002;2023-04-23T00:48:39;15.60;99.90
21522;DHT22;10922;45.572;10.002;2023-04-23T00:51:06;15.50;99.90
21522;DHT22;10922;45.572;10.002;2023-04-23T00:53:32;15.50;99.90
21522;DHT22;10922;45.572;10.002;2023-04-23T00:56:00;15.50;99.90
21522;DHT22;10922;45.572;10.002;2023-04-23T00:58:27;15.50;99.90
21522;DHT22;10922;45.572;10.002;2023-04-23T01:00:52;15.40;99.90
21522;DHT22;10922;45.572;10.002;2023-04-23T01:03:19;15.50;99.90
21522;DHT22;10922;45.572;10.002;2023-04-23T01:05:47;15.40;99.90
21522;DHT22;10922;45.572;10.002;2023-04-23T01:08:15;15.40;99.90
21522;DHT22;10922;45.572;10.002;2023-04-23T01:10:44;15.50;99.90
21522;DHT22;10922;45.572;10.002;2023-04-23T01:13:12;15.50;99.90
21522;DHT22;10922;45.572;10.002;2023-04-23T01:15:38;15.50;99.90
21522;DHT22;10922;45.572;10.002;2023-04-23T01:18:03;15.40;99.90
21522;DHT22;10922;45.572;10.002;2023-04-23T01:20:35;15.40;99.90
21522;DHT22;10922;45.572;10.002;2023-04-23T01:23:02;15.40;99.90
21522;DHT22;10922;45.572;10.002;2023-04-23T01:25:28;15.40;99.90
21522;DHT22;10922;45.572;10.002;2023-04-23T01:27:55;15.30;99.90
21522;DHT22;10922;45.572;10.002;2023-04-23T01:30:22;15.40;99.90
21522;DHT22;10922;45.572;10.002;2023-04-23T01:32:48;15.30;99.90
21522;DHT22;10922;45.572;10.002;2023-04-23T01:35:14;15.30;99.90
21522;DHT22;10922;45.572;10.002;2023-04-23T01:37:41;15.30;99.90
21522;DHT22;10922;45.572;10.002;2023-04-23T01:40:08;15.30;99.90
21522;DHT22;10922;45.572;10.002;2023-04-23T01:42:34;15.30;99.90
21522;DHT22;10922;45.572;10.002;2023-04-23T01:45:01;15.30;99.90
21522;DHT22;10922;45.572;10.002;2023-04-23T01:47:27;15.20;99.90
21522;DHT22;10922;45.572;10.002;2023-04-23T01:49:53;15.20;99.90
21522;DHT22;10922;45.572;10.002;2023-04-23T01:52:18;15.20;99.90
21522;DHT22;10922;45.572;10.002;2023-04-23T01:54:44;15.20;99.90
21522;DHT22;10922;45.572;10.002;2023-04-23T01:57:10;15.20;99.90
21522;DHT22;10922;45.572;10.002;2023-04-23T01:59:36;15.20;99.90
21522;DHT22;10922;45.572;10.002;2023-04-23T02:02:02;15.10;99.90
21522;DHT22;10922;45.572;10.002;2023-04-23T02:04:28;15.10;99.90
21522;DHT22;10922;45.572;10.002;2023-04-23T02:06:54;15.10;99.90
21522;DHT22;10922;45.572;10.002;2023-04-23T02:09:20;15.10;99.90
21522;DHT22;10922;45.572;10.002;2023-04-23T02:11:46;15.10;99.90
21522;DHT22;10922;45.572;10.002;2023-04-23T02:14:11;15.00;99.90
21522;DHT22;10922;45.572;10.002;2023-04-23T02:16:37;15.00;99.90
21522;DHT22;10922;45.572;10.002;2023-04-23T02:19:03;15.00;99.90
21522;DHT22;10922;45.572;10.002;2023-04-23T02:21:31;15.00;99.90
21522;DHT22;10922;45.572;10.002;2023-04-23T02:23:57;15.00;99.90
21522;DHT22;10922;45.572;10.002;2023-04-23T02:26:22;14.90;99.90
21522;DHT22;10922;45.572;10.002;2023-04-23T02:28:49;14.90;99.90
21522;DHT22;10922;45.572;10.002;2023-04-23T02:31:15;14.90;99.90
21522;DHT22;10922;45.572;10.002;2023-04-23T02:33:42;14.90;99.90
21522;DHT22;10922;45.572;10.002;2023-04-23T02:36:08;14.80;99.90
21522;DHT22;10922;45.572;10.002;2023-04-23T02:38:35;14.80;99.90
21522;DHT22;10922;45.572;10.002;2023-04-23T02:41:01;14.80;99.90
21522;DHT22;10922;45.572;10.002;2023-04-23T02:43:27;14.80;99.90
21522;DHT22;10922;45.572;10.002;2023-04-23T02:45:52;14.80;99.90
21522;DHT22;10922;45.572;10.002;2023-04-23T02:48:18;14.80;99.90
21522;DHT22;10922;45.572;10.002;2023-04-23T02:50:43;14.80;99.90
21522;DHT22;10922;45.572;10.002;2023-04-23T02:53:11;14.80;99.90
21522;DHT22;10922;45.572;10.002;2023-04-23T02:55:36;14.80;99.90
21522;DHT22;10922;45.572;10.002;2023-04-23T02:58:02;14.80;99.90
21522;DHT22;10922;45.572;10.002;2023-04-23T03:00:28;14.80;99.90
21522;DHT22;10922;45.572;10.002;2023-04-23T03:02:53;14.80;99.90
21522;DHT22;10922;45.572;10.002;2023-04-23T03:05:19;14.80;99.90
21522;DHT22;10922;45.572;10.002;2023-04-23T03:07:45;14.80;99.90
21522;DHT22;10922;45.572;10.002;2023-04-23T03:10:10;14.80;99.90
21522;DHT22;10922;45.572;10.002;2023-04-23T03:12:36;14.80;99.90
21522;DHT22;10922;45.572;10.002;2023-04-23T03:15:01;14.80;99.90
21522;DHT22;10922;45.572;10.002;2023-04-23T03:17:27;14.70;99.90
21522;DHT22;10922;45.572;10.002;2023-04-23T03:19:53;14.70;99.90
21522;DHT22;10922;45.572;10.002;2023-04-23T03:22:18;14.60;99.90
21522;DHT22;10922;45.572;10.002;2023-04-23T03:24:44;14.60;99.90
21522;DHT22;10922;45.572;10.002;2023-04-23T03:27:10;14.50;99.90
21522;DHT22;10922;45.572;10.002;2023-04-23T03:29:36;14.50;99.90
21522;DHT22;10922;45.572;10.002;2023-04-23T03:32:01;14.40;99.90
21522;DHT22;10922;45.572;10.002;2023-04-23T03:34:27;14.40;99.90
21522;DHT22;10922;45.572;10.002;2023-04-23T03:36:52;14.40;99.90
21522;DHT22;10922;45.572;10.002;2023-04-23T03:39:18;14.30;99.90
21522;DHT22;10922;45.572;10.002;2023-04-23T03:41:44;14.30;99.90
21522;DHT22;10922;45.572;10.002;2023-04-23T03:44:10;14.20;99.90
21522;DHT22;10922;45.572;10.002;2023-04-23T03:46:35;14.20;99.90
21522;DHT22;10922;45.572;10.002;2023-04-23T03:49:01;14.10;99.90
21522;DHT22;10922;45.572;10.002;2023-04-23T03:51:27;14.10;99.90
21522;DHT22;10922;45.572;10.002;2023-04-23T03:53:52;14.10;99.90
21522;DHT22;10922;45.572;10.002;2023-04-23T03:56:18;14.10;99.90
21522;DHT22;10922;45.572;10.002;2023-04-23T03:58:44;14.10;99.90
21522;DHT22;10922;45.572;10.002;2023-04-23T04:01:09;14.10;99.90
21522;DHT22;10922;45.572;10.002;2023-04-23T04:03:35;14.10;99.90
21522;DHT22;10922;45.572;10.002;2023-04-23T04:06:01;14.00;99.90
21522;DHT22;10922;45.572;10.002;2023-04-23T04:08:27;13.90;99.90
21522;DHT22;10922;45.572;10.002;2023-04-23T04:10:54;13.90;99.90
21522;DHT22;10922;45.572;10.002;2023-04-23T04:13:20;13.80;99.90
21522;DHT22;10922;45.572;10.002;2023-04-23T04:15:46;13.70;99.90
21522;DHT22;10922;45.572;10.002;2023-04-23T04:18:11;13.70;99.90
21522;DHT22;10922;45.572;10.002;2023-04-23T04:20:37;13.70;99.90
21522;DHT22;10922;45.572;10.002;2023-04-23T04:23:03;13.70;99.90
21522;DHT22;10922;45.572;10.002;2023-04-23T04:25:28;13.60;99.90
21522;DHT22;10922;45.572;10.002;2023-04-23T04:27:54;13.70;99.90
21522;DHT22;10922;45.572;10.002;2023-04-23T04:30:23;13.70;99.90
21522;DHT22;10922;45.572;10.002;2023-04-23T04:32:49;13.70;99.90
21522;DHT22;10922;45.572;10.002;2023-04-23T04:35:15;13.70;99.90
21522;DHT22;10922;45.572;10.002;2023-04-23T04:37:41;13.90;99.90
21522;DHT22;10922;45.572;10.002;2023-04-23T04:40:09;13.80;99.90
21522;DHT22;10922;45.572;10.002;2023-04-23T04:42:36;13.80;99.90
21522;DHT22;10922;45.572;10.002;2023-04-23T04:45:03;13.80;99.90
21522;DHT22;10922;45.572;10.002;2023-04-23T04:47:30;13.90;99.90
21522;DHT22;10922;45.572;10.002;2023-04-23T04:49:57;14.00;99.90
21522;DHT22;10922;45.572;10.002;2023-04-23T04:52:24;14.00;99.90
21522;DHT22;10922;45.572;10.002;2023-04-23T04:54:50;14.10;99.90
21522;DHT22;10922;45.572;10.002;2023-04-23T04:57:15;14.10;99.90
21522;DHT22;10922;45.572;10.002;2023-04-23T04:59:41;14.20;99.90
21522;DHT22;10922;45.572;10.002;2023-04-23T05:02:07;14.20;99.90
21522;DHT22;10922;45.572;10.002;2023-04-23T05:04:32;14.20;99.90
21522;DHT22;10922;45.572;10.002;2023-04-23T05:06:58;14.30;99.90
21522;DHT22;10922;45.572;10.002;2023-04-23T05:09:24;14.30;99.90
21522;DHT22;10922;45.572;10.002;2023-04-23T05:11:50;14.30;99.90
21522;DHT22;10922;45.572;10.002;2023-04-23T05:14:16;14.40;99.90
21522;DHT22;10922;45.572;10.002;2023-04-23T05:16:41;14.60;99.90
21522;DHT22;10922;45.572;10.002;2023-04-23T05:19:07;14.70;99.90
21522;DHT22;10922;45.572;10.002;2023-04-23T05:21:33;14.80;99.90
21522;DHT22;10922;45.572;10.002;2023-04-23T05:23:58;14.90;99.90
21522;DHT22;10922;45.572;10.002;2023-04-23T05:26:24;15.00;99.90
21522;DHT22;10922;45.572;10.002;2023-04-23T05:28:50;15.00;99.90
21522;DHT22;10922;45.572;10.002;2023-04-23T05:31:15;15.00;99.90
21522;DHT22;10922;45.572;10.002;2023-04-23T05:33:41;15.10;99.90
21522;DHT22;10922;45.572;10.002;2023-04-23T05:36:09;15.20;99.90
21522;DHT22;10922;45.572;10.002;2023-04-23T05:38:35;15.30;99.90
21522;DHT22;10922;45.572;10.002;2023-04-23T05:41:00;15.30;99.90
21522;DHT22;10922;45.572;10.002;2023-04-23T05:43:26;15.40;99.90
21522;DHT22;10922;45.572;10.002;2023-04-23T05:45:52;15.50;99.90
21522;DHT22;10922;45.572;10.002;2023-04-23T05:48:17;15.70;99.90
21522;DHT22;10922;45.572;10.002;2023-04-23T05:50:43;15.70;99.90
21522;DHT22;10922;45.572;10.002;2023-04-23T05:53:09;15.70;99.90
21522;DHT22;10922;45.572;10.002;2023-04-23T05:55:34;15.80;99.90
21522;DHT22;10922;45.572;10.002;2023-04-23T05:58:00;15.70;99.90
21522;DHT22;10922;45.572;10.002;2023-04-23T06:00:26;15.70;99.90
21522;DHT22;10922;45.572;10.002;2023-04-23T06:02:52;15.70;99.90
21522;DHT22;10922;45.572;10.002;2023-04-23T06:05:18;15.70;99.90
21522;DHT22;10922;45.572;10.002;2023-04-23T06:07:44;15.80;99.90
21522;DHT22;10922;45.572;10.002;2023-04-23T06:10:10;15.80;99.90
21522;DHT22;10922;45.572;10.002;2023-04-23T06:12:35;15.90;99.90
21522;DHT22;10922;45.572;10.002;2023-04-23T06:15:05;16.00;99.90
21522;DHT22;10922;45.572;10.002;2023-04-23T06:17:31;16.00;99.90
21522;DHT22;10922;45.572;10.002;2023-04-23T06:19:57;16.00;99.90
21522;DHT22;10922;45.572;10.002;2023-04-23T06:22:22;16.10;99.90
21522;DHT22;10922;45.572;10.002;2023-04-23T06:24:48;16.00;99.90
21522;DHT22;10922;45.572;10.002;2023-04-23T06:27:14;16.10;99.90
21522;DHT22;10922;45.572;10.002;2023-04-23T06:29:39;16.00;99.90
21522;DHT22;10922;45.572;10.002;2023-04-23T06:32:05;16.10;99.90
21522;DHT22;10922;45.572;10.002;2023-04-23T06:34:31;16.20;99.90
21522;DHT22;10922;45.572;10.002;2023-04-23T06:36:57;16.20;99.90
21522;DHT22;10922;45.572;10.002;2023-04-23T06:39:22;16.40;99.90
21522;DHT22;10922;45.572;10.002;2023-04-23T06:41:48;16.50;99.90
21522;DHT22;10922;45.572;10.002;2023-04-23T06:44:14;16.50;99.90
21522;DHT22;10922;45.572;10.002;2023-04-23T06:46:40;16.40;99.90
21522;DHT22;10922;45.572;10.002;2023-04-23T06:49:06;16.40;99.90
21522;DHT22;10922;45.572;10.002;2023-04-23T06:51:31;16.40;99.90
21522;DHT22;10922;45.572;10.002;2023-04-23T06:53:57;16.30;99.90
21522;DHT22;10922;45.572;10.002;2023-04-23T06:56:25;16.30;99.90
21522;DHT22;10922;45.572;10.002;2023-04-23T06:58:51;16.30;99.90
21522;DHT22;10922;45.572;10.002;2023-04-23T07:01:18;16.30;99.90
21522;DHT22;10922;45.572;10.002;2023-04-23T07:03:43;16.40;99.90
21522;DHT22;10922;45.572;10.002;2023-04-23T07:06:16;16.50;99.90
21522;DHT22;10922;45.572;10.002;2023-04-23T07:08:42;16.30;99.90
21522;DHT22;10922;45.572;10.002;2023-04-23T07:11:09;16.30;99.90
21522;DHT22;10922;45.572;10.002;2023-04-23T07:13:36;16.60;99.90
21522;DHT22;10922;45.572;10.002;2023-04-23T07:16:01;16.80;99.90
21522;DHT22;10922;45.572;10.002;2023-04-23T07:18:27;17.00;99.90
21522;DHT22;10922;45.572;10.002;2023-04-23T07:20:53;17.20;99.90
21522;DHT22;10922;45.572;10.002;2023-04-23T07:23:19;17.30;99.90
21522;DHT22;10922;45.572;10.002;2023-04-23T07:25:44;17.40;99.90
21522;DHT22;10922;45.572;10.002;2023-04-23T07:28:10;17.50;99.90
21522;DHT22;10922;45.572;10.002;2023-04-23T07:30:36;17.70;99.90
21522;DHT22;10922;45.572;10.002;2023-04-23T07:33:02;17.80;99.90
21522;DHT22;10922;45.572;10.002;2023-04-23T07:35:27;18.00;99.90
21522;DHT22;10922;45.572;10.002;2023-04-23T07:37:53;18.20;99.90
21522;DHT22;10922;45.572;10.002;2023-04-23T07:40:23;18.20;99.90
21522;DHT22;10922;45.572;10.002;2023-04-23T07:42:50;18.30;99.90
21522;DHT22;10922;45.572;10.002;2023-04-23T07:45:16;18.00;99.90
21522;DHT22;10922;45.572;10.002;2023-04-23T07:47:42;18.10;99.90
21522;DHT22;10922;45.572;10.002;2023-04-23T07:50:08;18.40;99.90
21522;DHT22;10922;45.572;10.002;2023-04-23T07:52:34;18.20;99.90
21522;DHT22;10922;45.572;10.002;2023-04-23T07:55:01;18.40;99.90
21522;DHT22;10922;45.572;10.002;2023-04-23T07:57:26;18.40;99.90
21522;DHT22;10922;45.572;10.002;2023-04-23T07:59:52;18.40;99.90
21522;DHT22;10922;45.572;10.002;2023-04-23T08:02:17;18.30;99.90
21522;DHT22;10922;45.572;10.002;2023-04-23T08:04:50;18.40;99.90
21522;DHT22;10922;45.572;10.002;2023-04-23T08:07:16;18.90;99.90
21522;DHT22;10922;45.572;10.002;2023-04-23T08:09:42;18.80;99.90
21522;DHT22;10922;45.572;10.002;2023-04-23T08:12:07;18.30;99.90
21522;DHT22;10922;45.572;10.002;2023-04-23T08:14:33;18.80;99.90
21522;DHT22;10922;45.572;10.002;2023-04-23T08:16:59;18.90;99.90
21522;DHT22;10922;45.572;10.002;2023-04-23T08:19:24;18.70;99.90
21522;DHT22;10922;45.572;10.002;2023-04-23T08:21:51;18.40;99.90
21522;DHT22;10922;45.572;10.002;2023-04-23T08:24:16;18.10;99.90
21522;DHT22;10922;45.572;10.002;2023-04-23T08:26:42;18.20;99.90
21522;DHT22;10922;45.572;10.002;2023-04-23T08:29:08;18.20;99.90
21522;DHT22;10922;45.572;10.002;2023-04-23T08:31:33;18.10;99.90
21522;DHT22;10922;45.572;10.002;2023-04-23T08:34:00;18.50;99.90
21522;DHT22;10922;45.572;10.002;2023-04-23T08:36:25;18.60;99.90
21522;DHT22;10922;45.572;10.002;2023-04-23T08:38:51;18.70;99.90
21522;DHT22;10922;45.572;10.002;2023-04-23T08:41:18;18.80;99.90
21522;DHT22;10922;45.572;10.002;2023-04-23T08:44:12;18.40;99.90
21522;DHT22;10922;45.572;10.002;2023-04-23T08:46:41;18.40;99.90
21522;DHT22;10922;45.572;10.002;2023-04-23T08:49:07;18.40;99.90
21522;DHT22;10922;45.572;10.002;2023-04-23T08:51:37;18.60;99.90
21522;DHT22;10922;45.572;10.002;2023-04-23T08:54:08;18.70;99.90
21522;DHT22;10922;45.572;10.002;2023-04-23T08:56:36;18.50;99.90
21522;DHT22;10922;45.572;10.002;2023-04-23T08:59:03;18.50;99.90
21522;DHT22;10922;45.572;10.002;2023-04-23T09:01:29;18.50;99.90
21522;DHT22;10922;45.572;10.002;2023-04-23T09:03:55;18.80;99.90
21522;DHT22;10922;45.572;10.002;2023-04-23T09:06:20;19.00;99.90
21522;DHT22;10922;45.572;10.002;2023-04-23T09:08:46;19.00;99.90
21522;DHT22;10922;45.572;10.002;2023-04-23T09:11:12;19.00;99.90
21522;DHT22;10922;45.572;10.002;2023-04-23T09:13:39;19.00;99.90
21522;DHT22;10922;45.572;10.002;2023-04-23T09:16:05;18.80;99.90
21522;DHT22;10922;45.572;10.002;2023-04-23T09:18:31;19.20;99.90
21522;DHT22;10922;45.572;10.002;2023-04-23T09:20:57;19.40;99.90
21522;DHT22;10922;45.572;10.002;2023-04-23T09:23:23;19.60;99.90
21522;DHT22;10922;45.572;10.002;2023-04-23T09:25:49;19.70;99.90
21522;DHT22;10922;45.572;10.002;2023-04-23T09:28:14;20.00;99.90
21522;DHT22;10922;45.572;10.002;2023-04-23T09:30:44;20.30;99.90
21522;DHT22;10922;45.572;10.002;2023-04-23T09:33:11;20.20;99.90
21522;DHT22;10922;45.572;10.002;2023-04-23T09:35:37;20.50;99.90
21522;DHT22;10922;45.572;10.002;2023-04-23T09:38:03;20.70;99.90
21522;DHT22;10922;45.572;10.002;2023-04-23T09:40:32;20.70;99.90
21522;DHT22;10922;45.572;10.002;2023-04-23T09:42:58;21.00;99.90
21522;DHT22;10922;45.572;10.002;2023-04-23T09:45:24;21.20;99.90
21522;DHT22;10922;45.572;10.002;2023-04-23T09:47:52;21.80;99.90
21522;DHT22;10922;45.572;10.002;2023-04-23T09:50:18;22.00;99.90
21522;DHT22;10922;45.572;10.002;2023-04-23T09:52:44;22.00;99.90
21522;DHT22;10922;45.572;10.002;2023-04-23T09:55:10;22.20;99.90
21522;DHT22;10922;45.572;10.002;2023-04-23T09:57:43;21.80;99.90
21522;DHT22;10922;45.572;10.002;2023-04-23T10:00:17;21.50;99.90
21522;DHT22;10922;45.572;10.002;2023-04-23T10:02:48;21.60;99.90
21522;DHT22;10922;45.572;10.002;2023-04-23T10:05:21;21.70;99.90
21522;DHT22;10922;45.572;10.002;2023-04-23T10:07:47;21.80;99.90
21522;DHT22;10922;45.572;10.002;2023-04-23T10:10:17;21.90;99.90
21522;DHT22;10922;45.572;10.002;2023-04-23T10:12:44;22.00;99.90
21522;DHT22;10922;45.572;10.002;2023-04-23T10:15:11;21.70;99.90
21522;DHT22;10922;45.572;10.002;2023-04-23T10:17:38;21.90;99.90
21522;DHT22;10922;45.572;10.002;2023-04-23T10:20:05;23.20;99.90
21522;DHT22;10922;45.572;10.002;2023-04-23T10:22:32;23.90;99.90
21522;DHT22;10922;45.572;10.002;2023-04-23T10:25:00;24.20;99.90
21522;DHT22;10922;45.572;10.002;2023-04-23T10:27:29;24.10;99.90
21522;DHT22;10922;45.572;10.002;2023-04-23T10:29:56;24.40;99.90
21522;DHT22;10922;45.572;10.002;2023-04-23T10:32:22;24.70;99.90
21522;DHT22;10922;45.572;10.002;2023-04-23T10:34:49;24.30;99.90
21522;DHT22;10922;45.572;10.002;2023-04-23T10:37:16;24.40;99.90
21522;DHT22;10922;45.572;10.002;2023-04-23T10:39:46;24.70;99.90
21522;DHT22;10922;45.572;10.002;2023-04-23T10:42:15;24.80;99.90
21522;DHT22;10922;45.572;10.002;2023-04-23T10:44:42;24.50;99.90
21522;DHT22;10922;45.572;10.002;2023-04-23T10:47:16;24.90;99.90
21522;DHT22;10922;45.572;10.002;2023-04-23T10:49:42;25.00;99.90
21522;DHT22;10922;45.572;10.002;2023-04-23T10:52:13;25.10;99.90
21522;DHT22;10922;45.572;10.002;2023-04-23T10:54:41;25.30;99.90
21522;DHT22;10922;45.572;10.002;2023-04-23T10:57:07;24.90;99.90
21522;DHT22;10922;45.572;10.002;2023-04-23T10:59:34;24.40;99.90
21522;DHT22;10922;45.572;10.002;2023-04-23T11:02:08;24.50;99.90
21522;DHT22;10922;45.572;10.002;2023-04-23T11:04:35;25.20;99.90
21522;DHT22;10922;45.572;10.002;2023-04-23T11:07:04;26.10;99.90
21522;DHT22;10922;45.572;10.002;2023-04-23T11:12:00;26.30;99.90
21522;DHT22;10922;45.572;10.002;2023-04-23T11:14:37;25.80;99.90
21522;DHT22;10922;45.572;10.002;2023-04-23T11:17:05;25.80;99.90
21522;DHT22;10922;45.572;10.002;2023-04-23T11:19:37;25.70;99.90
21522;DHT22;10922;45.572;10.002;2023-04-23T11:22:13;23.90;99.90
21522;DHT22;10922;45.572;10.002;2023-04-23T11:24:41;24.20;99.90
21522;DHT22;10922;45.572;10.002;2023-04-23T11:27:09;24.90;99.90
21522;DHT22;10922;45.572;10.002;2023-04-23T11:29:39;25.50;99.90
21522;DHT22;10922;45.572;10.002;2023-04-23T11:32:06;25.80;99.90
21522;DHT22;10922;45.572;10.002;2023-04-23T11:34:38;26.10;99.90
21522;DHT22;10922;45.572;10.002;2023-04-23T11:37:05;26.10;99.90
21522;DHT22;10922;45.572;10.002;2023-04-23T11:39:34;25.50;99.90
21522;DHT22;10922;45.572;10.002;2023-04-23T11:41:59;25.80;99.90
21522;DHT22;10922;45.572;10.002;2023-04-23T11:44:27;25.90;99.90
21522;DHT22;10922;45.572;10.002;2023-04-23T11:46:54;25.00;99.90
21522;DHT22;10922;45.572;10.002;2023-04-23T11:49:23;25.20;99.90
21522;DHT22;10922;45.572;10.002;2023-04-23T11:51:49;24.80;99.90
21522;DHT22;10922;45.572;10.002;2023-04-23T11:54:15;24.90;99.90
21522;DHT22;10922;45.572;10.002;2023-04-23T11:56:40;25.20;99.90
21522;DHT22;10922;45.572;10.002;2023-04-23T11:59:06;25.00;99.90
21522;DHT22;10922;45.572;10.002;2023-04-23T12:01:43;25.50;99.90
21522;DHT22;10922;45.572;10.002;2023-04-23T12:04:18;26.00;99.90
21522;DHT22;10922;45.572;10.002;2023-04-23T12:06:45;26.40;99.90
21522;DHT22;10922;45.572;10.002;2023-04-23T12:09:12;26.80;99.90
21522;DHT22;10922;45.572;10.002;2023-04-23T12:11:40;27.30;99.90
21522;DHT22;10922;45.572;10.002;2023-04-23T12:14:05;27.60;99.90
21522;DHT22;10922;45.572;10.002;2023-04-23T12:16:44;27.30;99.90
21522;DHT22;10922;45.572;10.002;2023-04-23T12:19:13;27.30;99.90
21522;DHT22;10922;45.572;10.002;2023-04-23T12:24:29;27.90;99.90
21522;DHT22;10922;45.572;10.002;2023-04-23T12:26:57;26.80;99.90
21522;DHT22;10922;45.572;10.002;2023-04-23T12:29:25;26.20;99.90
21522;DHT22;10922;45.572;10.002;2023-04-23T12:31:52;26.80;99.90
21522;DHT22;10922;45.572;10.002;2023-04-23T12:34:19;27.00;99.90
21522;DHT22;10922;45.572;10.002;2023-04-23T12:36:48;27.20;99.90
21522;DHT22;10922;45.572;10.002;2023-04-23T12:39:27;27.00;99.90
21522;DHT22;10922;45.572;10.002;2023-04-23T12:42:05;26.30;99.90
21522;DHT22;10922;45.572;10.002;2023-04-23T12:44:35;25.10;99.90
21522;DHT22;10922;45.572;10.002;2023-04-23T12:47:04;26.80;99.90
21522;DHT22;10922;45.572;10.002;2023-04-23T12:49:32;31.10;99.90
21522;DHT22;10922;45.572;10.002;2023-04-23T12:51:59;30.20;99.90
21522;DHT22;10922;45.572;10.002;2023-04-23T12:54:27;28.80;99.90
21522;DHT22;10922;45.572;10.002;2023-04-23T12:56:54;29.40;99.90
21522;DHT22;10922;45.572;10.002;2023-04-23T12:59:20;28.10;99.90
21522;DHT22;10922;45.572;10.002;2023-04-23T13:01:46;27.60;99.90
21522;DHT22;10922;45.572;10.002;2023-04-23T13:04:11;26.20;99.90
21522;DHT22;10922;45.572;10.002;2023-04-23T13:06:38;25.90;99.90
21522;DHT22;10922;45.572;10.002;2023-04-23T13:09:03;26.30;99.90
21522;DHT22;10922;45.572;10.002;2023-04-23T13:11:30;28.70;99.90
21522;DHT22;10922;45.572;10.002;2023-04-23T13:13:57;30.60;99.90
21522;DHT22;10922;45.572;10.002;2023-04-23T13:16:23;29.10;99.90
21522;DHT22;10922;45.572;10.002;2023-04-23T13:18:49;29.20;99.90
21522;DHT22;10922;45.572;10.002;2023-04-23T13:21:17;28.90;99.90
21522;DHT22;10922;45.572;10.002;2023-04-23T13:23:42;27.30;99.90
21522;DHT22;10922;45.572;10.002;2023-04-23T13:26:08;27.00;99.90
21522;DHT22;10922;45.572;10.002;2023-04-23T13:28:34;26.70;99.90
21522;DHT22;10922;45.572;10.002;2023-04-23T13:31:01;27.40;99.90
21522;DHT22;10922;45.572;10.002;2023-04-23T13:33:27;30.30;99.90
21522;DHT22;10922;45.572;10.002;2023-04-23T13:35:52;31.90;99.90
21522;DHT22;10922;45.572;10.002;2023-04-23T13:38:21;30.70;99.90
21522;DHT22;10922;45.572;10.002;2023-04-23T13:40:47;28.70;99.90
21522;DHT22;10922;45.572;10.002;2023-04-23T13:43:13;27.80;99.90
21522;DHT22;10922;45.572;10.002;2023-04-23T13:45:39;26.70;99.90
21522;DHT22;10922;45.572;10.002;2023-04-23T13:48:05;25.70;99.90
21522;DHT22;10922;45.572;10.002;2023-04-23T13:50:32;25.00;99.90
21522;DHT22;10922;45.572;10.002;2023-04-23T13:52:58;24.30;99.90
21522;DHT22;10922;45.572;10.002;2023-04-23T13:55:24;23.80;99.90
21522;DHT22;10922;45.572;10.002;2023-04-23T13:57:50;24.20;99.90
21522;DHT22;10922;45.572;10.002;2023-04-23T14:00:16;23.90;99.90
21522;DHT22;10922;45.572;10.002;2023-04-23T14:02:42;24.10;99.90
21522;DHT22;10922;45.572;10.002;2023-04-23T14:05:08;23.90;99.90
21522;DHT22;10922;45.572;10.002;2023-04-23T14:07:36;24.40;99.90
21522;DHT22;10922;45.572;10.002;2023-04-23T14:10:02;24.50;99.90
21522;DHT22;10922;45.572;10.002;2023-04-23T14:12:28;25.10;99.90
21522;DHT22;10922;45.572;10.002;2023-04-23T14:14:54;25.30;99.90
21522;DHT22;10922;45.572;10.002;2023-04-23T14:17:20;25.20;99.90
21522;DHT22;10922;45.572;10.002;2023-04-23T14:19:46;25.60;99.90
21522;DHT22;10922;45.572;10.002;2023-04-23T14:22:12;25.80;99.90
21522;DHT22;10922;45.572;10.002;2023-04-23T14:24:43;25.90;99.90
21522;DHT22;10922;45.572;10.002;2023-04-23T14:27:10;25.90;99.90
21522;DHT22;10922;45.572;10.002;2023-04-23T14:29:40;25.90;99.90
21522;DHT22;10922;45.572;10.002;2023-04-23T14:32:09;25.60;99.90
21522;DHT22;10922;45.572;10.002;2023-04-23T14:34:35;25.70;99.90
21522;DHT22;10922;45.572;10.002;2023-04-23T14:37:02;25.90;99.90
21522;DHT22;10922;45.572;10.002;2023-04-23T14:39:27;26.90;99.90
21522;DHT22;10922;45.572;10.002;2023-04-23T14:41:54;27.80;99.90
21522;DHT22;10922;45.572;10.002;2023-04-23T14:44:20;28.50;99.90
21522;DHT22;10922;45.572;10.002;2023-04-23T14:46:48;28.30;99.90
21522;DHT22;10922;45.572;10.002;2023-04-23T14:49:16;28.00;99.90
21522;DHT22;10922;45.572;10.002;2023-04-23T14:51:42;26.60;99.90
21522;DHT22;10922;45.572;10.002;2023-04-23T14:54:08;26.10;99.90
21522;DHT22;10922;45.572;10.002;2023-04-23T14:56:34;25.90;99.90
21522;DHT22;10922;45.572;10.002;2023-04-23T14:59:01;25.70;99.90
21522;DHT22;10922;45.572;10.002;2023-04-23T15:01:28;25.90;99.90
21522;DHT22;10922;45.572;10.002;2023-04-23T15:03:54;25.90;99.90
21522;DHT22;10922;45.572;10.002;2023-04-23T15:06:19;25.60;99.90
21522;DHT22;10922;45.572;10.002;2023-04-23T15:08:45;25.60;99.90
21522;DHT22;10922;45.572;10.002;2023-04-23T15:11:11;25.80;99.90
21522;DHT22;10922;45.572;10.002;2023-04-23T15:16:33;26.80;99.90
21522;DHT22;10922;45.572;10.002;2023-04-23T15:19:01;27.80;99.90
21522;DHT22;10922;45.572;10.002;2023-04-23T15:21:27;27.50;99.90